sensor_id;sensor_type;location;lat;lon;timestamp;temperature;humidity
53268;DHT22;39156;51.176;6.738;2022-11-20T00:01:18;4.30;66.30
53268;DHT22;39156;51.176;6.738;2022-11-20T00:03:45;4.40;66.40
53268;DHT22;39156;51.176;6.738;2022-11-20T00:06:13;4.40;66.40
53268;DHT22;39156;51.176;6.738;2022-11-20T00:08:41;4.30;66.40
53268;DHT22;39156;51.176;6.738;2022-11-20T00:11:09;4.30;66.40
53268;DHT22;39156;51.176;6.738;2022-11-20T00:13:39;4.30;66.50
53268;DHT22;39156;51.176;6.738;2022-11-20T00:16:07;4.30;66.70
53268;DHT22;39156;51.176;6.738;2022-11-20T00:18:34;4.30;66.70
53268;DHT22;39156;51.176;6.738;2022-11-20T00:21:05;4.30;66.70
53268;DHT22;39156;51.176;6.738;2022-11-20T00:23:32;4.40;67.00
53268;DHT22;39156;51.176;6.738;2022-11-20T00:26:08;4.40;67.10
53268;DHT22;39156;51.176;6.738;2022-11-20T00:28:36;4.40;67.20
53268;DHT22;39156;51.176;6.738;2022-11-20T00:31:13;4.50;67.20
53268;DHT22;39156;51.176;6.738;2022-11-20T00:33:40;4.40;67.20
53268;DHT22;39156;51.176;6.738;2022-11-20T00:36:15;4.50;67.20
53268;DHT22;39156;51.176;6.738;2022-11-20T00:38:42;4.50;67.40
53268;DHT22;39156;51.176;6.738;2022-11-20T00:41:10;4.50;67.10
53268;DHT22;39156;51.176;6.738;2022-11-20T00:43:38;4.50;66.90
53268;DHT22;39156;51.176;6.738;2022-11-20T00:46:06;4.60;67.00
53268;DHT22;39156;51.176;6.738;2022-11-20T00:48:33;4.60;66.90
53268;DHT22;39156;51.176;6.738;2022-11-20T00:50:59;4.60;66.60
53268;DHT22;39156;51.176;6.738;2022-11-20T00:53:25;4.50;66.30
53268;DHT22;39156;51.176;6.738;2022-11-20T00:55:56;4.60;66.10
53268;DHT22;39156;51.176;6.738;2022-11-20T00:58:23;4.60;66.10
53268;DHT22;39156;51.176;6.738;2022-11-20T01:00:49;4.60;66.00
53268;DHT22;39156;51.176;6.738;2022-11-20T01:03:17;4.60;66.40
53268;DHT22;39156;51.176;6.738;2022-11-20T01:05:43;4.70;66.10
53268;DHT22;39156;51.176;6.738;2022-11-20T01:08:09;4.60;66.00
53268;DHT22;39156;51.176;6.738;2022-11-20T01:10:35;4.60;66.60
53268;DHT22;39156;51.176;6.738;2022-11-20T01:13:00;4.60;65.80
53268;DHT22;39156;51.176;6.738;2022-11-20T01:15:44;4.60;65.90
53268;DHT22;39156;51.176;6.738;2022-11-20T01:18:10;4.60;66.00
53268;DHT22;39156;51.176;6.738;2022-11-20T01:20:36;4.70;66.30
53268;DHT22;39156;51.176;6.738;2022-11-20T01:23:03;4.70;66.30
53268;DHT22;39156;51.176;6.738;2022-11-20T01:25:28;4.60;66.40
53268;DHT22;39156;51.176;6.738;2022-11-20T01:27:54;4.60;66.30
53268;DHT22;39156;51.176;6.738;2022-11-20T01:30:20;4.60;66.30
53268;DHT22;39156;51.176;6.738;2022-11-20T01:32:46;4.60;66.60
53268;DHT22;39156;51.176;6.738;2022-11-20T01:35:12;4.60;66.60
53268;DHT22;39156;51.176;6.738;2022-11-20T01:37:37;4.60;66.60
53268;DHT22;39156;51.176;6.738;2022-11-20T01:40:03;4.70;66.70
53268;DHT22;39156;51.176;6.738;2022-11-20T01:42:29;4.60;66.40
53268;DHT22;39156;51.176;6.738;2022-11-20T01:46:12;4.60;66.00
53268;DHT22;39156;51.176;6.738;2022-11-20T01:52:11;4.50;66.00
53268;DHT22;39156;51.176;6.738;2022-11-20T01:54:21;4.60;66.70
53268;DHT22;39156;51.176;6.738;2022-11-20T01:56:51;4.60;66.10
53268;DHT22;39156;51.176;6.738;2022-11-20T01:59:20;4.60;66.40
53268;DHT22;39156;51.176;6.738;2022-11-20T02:01:46;4.70;66.40
53268;DHT22;39156;51.176;6.738;2022-11-20T02:04:13;4.60;66.20
53268;DHT22;39156;51.176;6.738;2022-11-20T02:06:49;4.60;66.00
53268;DHT22;39156;51.176;6.738;2022-11-20T02:09:18;4.50;65.80
53268;DHT22;39156;51.176;6.738;2022-11-20T02:11:43;4.50;65.80
53268;DHT22;39156;51.176;6.738;2022-11-20T02:14:10;4.50;65.70
53268;DHT22;39156;51.176;6.738;2022-11-20T02:16:47;4.40;65.60
53268;DHT22;39156;51.176;6.738;2022-11-20T02:19:26;4.30;65.70
53268;DHT22;39156;51.176;6.738;2022-11-20T02:22:14;4.20;65.70
53268;DHT22;39156;51.176;6.738;2022-11-20T02:25:05;4.20;66.00
53268;DHT22;39156;51.176;6.738;2022-11-20T02:27:32;4.00;66.00
53268;DHT22;39156;51.176;6.738;2022-11-20T02:30:02;3.90;66.30
53268;DHT22;39156;51.176;6.738;2022-11-20T02:32:34;3.70;66.60
53268;DHT22;39156;51.176;6.738;2022-11-20T02:37:43;3.60;67.40
53268;DHT22;39156;51.176;6.738;2022-11-20T02:40:09;3.50;67.40
53268;DHT22;39156;51.176;6.738;2022-11-20T02:42:36;3.50;67.60
53268;DHT22;39156;51.176;6.738;2022-11-20T02:45:04;3.50;67.60
53268;DHT22;39156;51.176;6.738;2022-11-20T02:47:30;3.40;67.70
53268;DHT22;39156;51.176;6.738;2022-11-20T02:49:56;3.30;68.00
53268;DHT22;39156;51.176;6.738;2022-11-20T02:52:23;3.20;68.10
53268;DHT22;39156;51.176;6.738;2022-11-20T02:54:49;3.20;68.20
53268;DHT22;39156;51.176;6.738;2022-11-20T02:57:14;3.20;68.30
53268;DHT22;39156;51.176;6.738;2022-11-20T02:59:40;3.10;68.40
53268;DHT22;39156;51.176;6.738;2022-11-20T03:02:05;3.10;68.60
53268;DHT22;39156;51.176;6.738;2022-11-20T03:04:31;3.10;68.70
53268;DHT22;39156;51.176;6.738;2022-11-20T03:06:57;3.00;68.80
53268;DHT22;39156;51.176;6.738;2022-11-20T03:09:22;3.00;68.90
53268;DHT22;39156;51.176;6.738;2022-11-20T03:11:48;3.00;69.10
53268;DHT22;39156;51.176;6.738;2022-11-20T03:14:14;2.90;69.20
53268;DHT22;39156;51.176;6.738;2022-11-20T03:16:40;2.90;69.30
53268;DHT22;39156;51.176;6.738;2022-11-20T03:19:06;3.00;69.40
53268;DHT22;39156;51.176;6.738;2022-11-20T03:21:35;2.90;69.50
53268;DHT22;39156;51.176;6.738;2022-11-20T03:24:01;3.00;69.60
53268;DHT22;39156;51.176;6.738;2022-11-20T03:26:27;3.00;69.50
53268;DHT22;39156;51.176;6.738;2022-11-20T03:28:59;3.00;69.40
53268;DHT22;39156;51.176;6.738;2022-11-20T03:31:29;2.70;69.20
53268;DHT22;39156;51.176;6.738;2022-11-20T03:34:08;2.90;69.40
53268;DHT22;39156;51.176;6.738;2022-11-20T03:36:38;2.90;69.50
53268;DHT22;39156;51.176;6.738;2022-11-20T03:39:04;2.90;69.60
53268;DHT22;39156;51.176;6.738;2022-11-20T03:41:31;2.80;69.70
53268;DHT22;39156;51.176;6.738;2022-11-20T03:44:03;2.80;69.90
53268;DHT22;39156;51.176;6.738;2022-11-20T03:46:31;2.80;69.90
53268;DHT22;39156;51.176;6.738;2022-11-20T03:48:57;2.80;70.00
53268;DHT22;39156;51.176;6.738;2022-11-20T03:51:28;2.90;70.10
53268;DHT22;39156;51.176;6.738;2022-11-20T03:53:56;2.70;70.00
53268;DHT22;39156;51.176;6.738;2022-11-20T03:56:25;2.80;70.10
53268;DHT22;39156;51.176;6.738;2022-11-20T03:58:52;2.80;70.10
53268;DHT22;39156;51.176;6.738;2022-11-20T04:01:20;2.70;70.00
53268;DHT22;39156;51.176;6.738;2022-11-20T04:03:49;2.90;70.30
53268;DHT22;39156;51.176;6.738;2022-11-20T04:06:15;2.80;70.40
53268;DHT22;39156;51.176;6.738;2022-11-20T04:08:45;2.80;70.50
53268;DHT22;39156;51.176;6.738;2022-11-20T04:11:19;2.90;70.90
53268;DHT22;39156;51.176;6.738;2022-11-20T04:13:47;2.80;71.10
53268;DHT22;39156;51.176;6.738;2022-11-20T04:16:15;2.80;71.10
53268;DHT22;39156;51.176;6.738;2022-11-20T04:18:41;2.80;71.10
53268;DHT22;39156;51.176;6.738;2022-11-20T04:21:07;2.80;71.30
53268;DHT22;39156;51.176;6.738;2022-11-20T04:23:33;2.80;71.30
53268;DHT22;39156;51.176;6.738;2022-11-20T04:26:03;2.80;71.40
53268;DHT22;39156;51.176;6.738;2022-11-20T04:28:33;2.90;71.20
53268;DHT22;39156;51.176;6.738;2022-11-20T04:31:16;2.90;71.20
53268;DHT22;39156;51.176;6.738;2022-11-20T04:33:43;2.90;71.30
53268;DHT22;39156;51.176;6.738;2022-11-20T04:36:15;2.90;71.10
53268;DHT22;39156;51.176;6.738;2022-11-20T04:38:43;3.00;71.10
53268;DHT22;39156;51.176;6.738;2022-11-20T04:41:17;2.90;70.90
53268;DHT22;39156;51.176;6.738;2022-11-20T04:43:48;3.00;70.70
53268;DHT22;39156;51.176;6.738;2022-11-20T04:46:19;3.00;70.60
53268;DHT22;39156;51.176;6.738;2022-11-20T04:48:46;3.00;70.40
53268;DHT22;39156;51.176;6.738;2022-11-20T04:51:12;3.10;70.30
53268;DHT22;39156;51.176;6.738;2022-11-20T04:53:38;3.00;70.30
53268;DHT22;39156;51.176;6.738;2022-11-20T04:56:09;3.00;70.30
53268;DHT22;39156;51.176;6.738;2022-11-20T04:58:36;3.00;70.40
53268;DHT22;39156;51.176;6.738;2022-11-20T05:03:30;3.00;70.70
53268;DHT22;39156;51.176;6.738;2022-11-20T05:05:56;3.00;70.80
53268;DHT22;39156;51.176;6.738;2022-11-20T05:08:22;3.00;71.10
53268;DHT22;39156;51.176;6.738;2022-11-20T05:10:47;3.00;70.90
53268;DHT22;39156;51.176;6.738;2022-11-20T05:13:13;3.00;71.50
53268;DHT22;39156;51.176;6.738;2022-11-20T05:15:39;3.10;70.90
53268;DHT22;39156;51.176;6.738;2022-11-20T05:18:04;3.00;70.80
53268;DHT22;39156;51.176;6.738;2022-11-20T05:20:30;3.20;70.80
53268;DHT22;39156;51.176;6.738;2022-11-20T05:22:59;3.00;70.70
53268;DHT22;39156;51.176;6.738;2022-11-20T05:25:25;3.00;70.50
53268;DHT22;39156;51.176;6.738;2022-11-20T05:27:50;3.00;70.60
53268;DHT22;39156;51.176;6.738;2022-11-20T05:30:16;3.10;70.60
53268;DHT22;39156;51.176;6.738;2022-11-20T05:32:42;3.20;70.70
53268;DHT22;39156;51.176;6.738;2022-11-20T05:35:07;3.10;70.80
53268;DHT22;39156;51.176;6.738;2022-11-20T05:37:33;3.10;70.80
53268;DHT22;39156;51.176;6.738;2022-11-20T05:39:59;3.10;70.60
53268;DHT22;39156;51.176;6.738;2022-11-20T05:42:24;3.10;70.70
53268;DHT22;39156;51.176;6.738;2022-11-20T05:45:01;3.10;71.00
53268;DHT22;39156;51.176;6.738;2022-11-20T05:47:31;3.10;71.00
53268;DHT22;39156;51.176;6.738;2022-11-20T05:49:57;3.20;71.00
53268;DHT22;39156;51.176;6.738;2022-11-20T05:52:23;3.20;71.00
53268;DHT22;39156;51.176;6.738;2022-11-20T05:54:49;3.10;71.10
53268;DHT22;39156;51.176;6.738;2022-11-20T05:57:14;3.20;71.10
53268;DHT22;39156;51.176;6.738;2022-11-20T05:59:40;3.20;71.10
53268;DHT22;39156;51.176;6.738;2022-11-20T06:02:06;3.20;71.20
53268;DHT22;39156;51.176;6.738;2022-11-20T06:04:32;3.20;71.20
53268;DHT22;39156;51.176;6.738;2022-11-20T06:06:57;3.20;71.10
53268;DHT22;39156;51.176;6.738;2022-11-20T06:09:23;3.30;71.00
53268;DHT22;39156;51.176;6.738;2022-11-20T06:11:49;3.30;71.10
53268;DHT22;39156;51.176;6.738;2022-11-20T06:14:14;3.30;71.20
53268;DHT22;39156;51.176;6.738;2022-11-20T06:16:40;3.20;71.20
53268;DHT22;39156;51.176;6.738;2022-11-20T06:19:06;3.30;71.10
53268;DHT22;39156;51.176;6.738;2022-11-20T06:21:31;3.30;71.00
53268;DHT22;39156;51.176;6.738;2022-11-20T06:23:57;3.30;70.90
53268;DHT22;39156;51.176;6.738;2022-11-20T06:26:24;3.30;70.90
53268;DHT22;39156;51.176;6.738;2022-11-20T06:28:52;3.30;70.90
53268;DHT22;39156;51.176;6.738;2022-11-20T06:31:20;3.20;70.90
53268;DHT22;39156;51.176;6.738;2022-11-20T06:33:47;3.20;71.00
53268;DHT22;39156;51.176;6.738;2022-11-20T06:36:15;3.20;71.70
53268;DHT22;39156;51.176;6.738;2022-11-20T06:38:42;3.10;71.10
53268;DHT22;39156;51.176;6.738;2022-11-20T06:41:11;3.10;71.20
53268;DHT22;39156;51.176;6.738;2022-11-20T06:43:39;3.00;71.50
53268;DHT22;39156;51.176;6.738;2022-11-20T06:46:05;3.00;71.70
53268;DHT22;39156;51.176;6.738;2022-11-20T06:48:31;3.00;71.80
53268;DHT22;39156;51.176;6.738;2022-11-20T06:50:57;2.90;71.60
53268;DHT22;39156;51.176;6.738;2022-11-20T06:53:24;2.90;71.70
53268;DHT22;39156;51.176;6.738;2022-11-20T06:55:50;2.90;71.90
53268;DHT22;39156;51.176;6.738;2022-11-20T06:58:17;2.80;71.90
53268;DHT22;39156;51.176;6.738;2022-11-20T07:00:43;2.80;72.00
53268;DHT22;39156;51.176;6.738;2022-11-20T07:03:10;2.80;72.00
53268;DHT22;39156;51.176;6.738;2022-11-20T07:05:37;2.80;72.10
53268;DHT22;39156;51.176;6.738;2022-11-20T07:08:03;2.70;72.00
53268;DHT22;39156;51.176;6.738;2022-11-20T07:10:30;2.80;72.10
53268;DHT22;39156;51.176;6.738;2022-11-20T07:12:56;2.80;72.20
53268;DHT22;39156;51.176;6.738;2022-11-20T07:15:23;2.70;72.30
53268;DHT22;39156;51.176;6.738;2022-11-20T07:17:50;2.70;72.30
53268;DHT22;39156;51.176;6.738;2022-11-20T07:20:16;2.70;72.40
53268;DHT22;39156;51.176;6.738;2022-11-20T07:22:42;2.70;72.40
53268;DHT22;39156;51.176;6.738;2022-11-20T07:25:08;2.70;72.50
53268;DHT22;39156;51.176;6.738;2022-11-20T07:27:34;2.80;72.60
53268;DHT22;39156;51.176;6.738;2022-11-20T07:30:00;2.70;72.40
53268;DHT22;39156;51.176;6.738;2022-11-20T07:32:27;2.80;72.30
53268;DHT22;39156;51.176;6.738;2022-11-20T07:34:52;2.70;72.40
53268;DHT22;39156;51.176;6.738;2022-11-20T07:37:18;2.80;72.50
53268;DHT22;39156;51.176;6.738;2022-11-20T07:39:44;2.80;72.50
53268;DHT22;39156;51.176;6.738;2022-11-20T07:42:10;2.80;72.40
53268;DHT22;39156;51.176;6.738;2022-11-20T07:44:37;2.80;72.50
53268;DHT22;39156;51.176;6.738;2022-11-20T07:47:04;2.80;72.60
53268;DHT22;39156;51.176;6.738;2022-11-20T07:49:30;2.90;72.70
53268;DHT22;39156;51.176;6.738;2022-11-20T07:51:55;2.90;72.50
53268;DHT22;39156;51.176;6.738;2022-11-20T07:54:22;2.90;72.30
53268;DHT22;39156;51.176;6.738;2022-11-20T07:56:48;3.00;72.30
53268;DHT22;39156;51.176;6.738;2022-11-20T07:59:15;3.10;72.40
53268;DHT22;39156;51.176;6.738;2022-11-20T08:01:41;3.10;72.40
53268;DHT22;39156;51.176;6.738;2022-11-20T08:04:08;3.10;72.40
53268;DHT22;39156;51.176;6.738;2022-11-20T08:06:35;3.20;72.30
53268;DHT22;39156;51.176;6.738;2022-11-20T08:09:01;3.20;72.60
53268;DHT22;39156;51.176;6.738;2022-11-20T08:11:27;3.30;73.90
53268;DHT22;39156;51.176;6.738;2022-11-20T08:14:11;3.30;74.20
53268;DHT22;39156;51.176;6.738;2022-11-20T08:16:45;3.40;74.00
53268;DHT22;39156;51.176;6.738;2022-11-20T08:19:16;3.60;73.80
53268;DHT22;39156;51.176;6.738;2022-11-20T08:21:43;3.60;73.10
53268;DHT22;39156;51.176;6.738;2022-11-20T08:24:09;3.60;72.70
53268;DHT22;39156;51.176;6.738;2022-11-20T08:26:36;3.70;73.50
53268;DHT22;39156;51.176;6.738;2022-11-20T08:29:03;3.70;72.80
53268;DHT22;39156;51.176;6.738;2022-11-20T08:31:29;3.70;72.70
53268;DHT22;39156;51.176;6.738;2022-11-20T08:33:55;3.80;72.60
53268;DHT22;39156;51.176;6.738;2022-11-20T08:36:22;3.90;72.70
53268;DHT22;39156;51.176;6.738;2022-11-20T08:38:53;3.90;72.90
53268;DHT22;39156;51.176;6.738;2022-11-20T08:41:21;4.10;73.40
53268;DHT22;39156;51.176;6.738;2022-11-20T08:43:52;4.10;72.90
53268;DHT22;39156;51.176;6.738;2022-11-20T08:46:23;4.20;72.30
53268;DHT22;39156;51.176;6.738;2022-11-20T08:48:50;4.30;71.90
53268;DHT22;39156;51.176;6.738;2022-11-20T08:51:16;4.30;72.00
53268;DHT22;39156;51.176;6.738;2022-11-20T08:53:43;4.40;71.40
53268;DHT22;39156;51.176;6.738;2022-11-20T08:56:08;4.30;71.40
53268;DHT22;39156;51.176;6.738;2022-11-20T08:58:35;4.40;71.30
53268;DHT22;39156;51.176;6.738;2022-11-20T09:01:01;4.50;72.10
53268;DHT22;39156;51.176;6.738;2022-11-20T09:03:27;4.40;71.90
53268;DHT22;39156;51.176;6.738;2022-11-20T09:06:03;4.50;72.00
53268;DHT22;39156;51.176;6.738;2022-11-20T09:08:30;4.50;72.10
53268;DHT22;39156;51.176;6.738;2022-11-20T09:10:57;4.70;72.30
53268;DHT22;39156;51.176;6.738;2022-11-20T09:13:25;4.60;71.80
53268;DHT22;39156;51.176;6.738;2022-11-20T09:15:56;4.70;71.40
53268;DHT22;39156;51.176;6.738;2022-11-20T09:18:27;4.70;70.40
53268;DHT22;39156;51.176;6.738;2022-11-20T09:20:59;4.80;70.90
53268;DHT22;39156;51.176;6.738;2022-11-20T09:23:26;4.90;71.20
53268;DHT22;39156;51.176;6.738;2022-11-20T09:25:52;4.80;70.10
53268;DHT22;39156;51.176;6.738;2022-11-20T09:28:20;4.90;69.70
53268;DHT22;39156;51.176;6.738;2022-11-20T09:30:46;4.90;69.20
53268;DHT22;39156;51.176;6.738;2022-11-20T09:33:12;4.90;69.80
53268;DHT22;39156;51.176;6.738;2022-11-20T09:35:38;5.00;70.00
53268;DHT22;39156;51.176;6.738;2022-11-20T09:38:05;5.10;70.50
53268;DHT22;39156;51.176;6.738;2022-11-20T09:40:32;5.30;70.10
53268;DHT22;39156;51.176;6.738;2022-11-20T09:43:19;5.40;70.40
53268;DHT22;39156;51.176;6.738;2022-11-20T09:51:53;5.80;66.80
53268;DHT22;39156;51.176;6.738;2022-11-20T09:54:31;5.90;66.30
53268;DHT22;39156;51.176;6.738;2022-11-20T09:57:08;5.80;65.70
53268;DHT22;39156;51.176;6.738;2022-11-20T09:59:39;5.80;66.70
53268;DHT22;39156;51.176;6.738;2022-11-20T10:02:28;5.80;67.20
53268;DHT22;39156;51.176;6.738;2022-11-20T10:05:06;5.80;66.10
53268;DHT22;39156;51.176;6.738;2022-11-20T10:10:54;5.80;66.10
53268;DHT22;39156;51.176;6.738;2022-11-20T10:16:19;5.70;65.60
53268;DHT22;39156;51.176;6.738;2022-11-20T10:27:56;5.60;66.00
53268;DHT22;39156;51.176;6.738;2022-11-20T10:30:41;5.60;66.10
53268;DHT22;39156;51.176;6.738;2022-11-20T10:33:18;5.60;66.20
53268;DHT22;39156;51.176;6.738;2022-11-20T10:35:51;5.40;66.50
53268;DHT22;39156;51.176;6.738;2022-11-20T10:38:54;5.40;66.60
53268;DHT22;39156;51.176;6.738;2022-11-20T10:41:32;5.50;66.30
53268;DHT22;39156;51.176;6.738;2022-11-20T10:44:17;5.50;66.60
53268;DHT22;39156;51.176;6.738;2022-11-20T10:47:05;5.50;66.30
53268;DHT22;39156;51.176;6.738;2022-11-20T10:49:40;5.50;66.40
53268;DHT22;39156;51.176;6.738;2022-11-20T10:58:22;5.50;66.40
53268;DHT22;39156;51.176;6.738;2022-11-20T11:01:26;5.50;66.60
53268;DHT22;39156;51.176;6.738;2022-11-20T11:03:53;5.50;66.50
53268;DHT22;39156;51.176;6.738;2022-11-20T11:06:35;5.50;66.80
53268;DHT22;39156;51.176;6.738;2022-11-20T11:09:13;5.50;66.70
53268;DHT22;39156;51.176;6.738;2022-11-20T11:11:41;5.60;66.80
53268;DHT22;39156;51.176;6.738;2022-11-20T11:14:14;5.60;66.90
53268;DHT22;39156;51.176;6.738;2022-11-20T11:16:54;5.50;66.50
53268;DHT22;39156;51.176;6.738;2022-11-20T11:19:23;5.50;66.60
53268;DHT22;39156;51.176;6.738;2022-11-20T11:21:52;5.50;66.80
53268;DHT22;39156;51.176;6.738;2022-11-20T11:24:27;5.60;67.10
53268;DHT22;39156;51.176;6.738;2022-11-20T11:27:02;5.60;67.10
53268;DHT22;39156;51.176;6.738;2022-11-20T11:29:31;5.60;67.00
53268;DHT22;39156;51.176;6.738;2022-11-20T11:34:40;5.50;67.10
53268;DHT22;39156;51.176;6.738;2022-11-20T11:37:13;5.50;67.10
53268;DHT22;39156;51.176;6.738;2022-11-20T11:39:42;5.60;67.10
53268;DHT22;39156;51.176;6.738;2022-11-20T11:42:17;5.60;67.30
53268;DHT22;39156;51.176;6.738;2022-11-20T11:44:45;5.60;67.40
53268;DHT22;39156;51.176;6.738;2022-11-20T11:50:19;5.70;67.10
53268;DHT22;39156;51.176;6.738;2022-11-20T11:53:21;5.70;66.70
53268;DHT22;39156;51.176;6.738;2022-11-20T11:55:58;5.70;66.90
53268;DHT22;39156;51.176;6.738;2022-11-20T11:58:50;5.70;67.10
53268;DHT22;39156;51.176;6.738;2022-11-20T12:01:38;5.80;67.20
53268;DHT22;39156;51.176;6.738;2022-11-20T12:04:20;5.80;67.20
53268;DHT22;39156;51.176;6.738;2022-11-20T12:07:41;5.80;67.40
53268;DHT22;39156;51.176;6.738;2022-11-20T12:12:54;5.90;67.40
53268;DHT22;39156;51.176;6.738;2022-11-20T12:15:30;5.90;67.30
53268;DHT22;39156;51.176;6.738;2022-11-20T12:17:57;5.80;67.50
53268;DHT22;39156;51.176;6.738;2022-11-20T12:20:35;5.90;67.50
53268;DHT22;39156;51.176;6.738;2022-11-20T12:23:13;5.80;67.70
53268;DHT22;39156;51.176;6.738;2022-11-20T12:25:47;5.90;67.60
53268;DHT22;39156;51.176;6.738;2022-11-20T12:32:13;5.90;67.50
53268;DHT22;39156;51.176;6.738;2022-11-20T12:37:45;6.00;67.30
53268;DHT22;39156;51.176;6.738;2022-11-20T12:43:30;6.00;67.60
53268;DHT22;39156;51.176;6.738;2022-11-20T12:46:49;6.10;67.70
53268;DHT22;39156;51.176;6.738;2022-11-20T12:52:38;6.00;67.60
53268;DHT22;39156;51.176;6.738;2022-11-20T12:57:52;5.90;68.00
53268;DHT22;39156;51.176;6.738;2022-11-20T13:00:22;5.90;68.10
53268;DHT22;39156;51.176;6.738;2022-11-20T13:03:30;5.90;68.30
53268;DHT22;39156;51.176;6.738;2022-11-20T13:06:13;5.80;68.80
53268;DHT22;39156;51.176;6.738;2022-11-20T13:08:53;5.80;68.70
53268;DHT22;39156;51.176;6.738;2022-11-20T13:14:24;5.80;69.40
53268;DHT22;39156;51.176;6.738;2022-11-20T13:19:49;5.80;69.70
53268;DHT22;39156;51.176;6.738;2022-11-20T13:22:27;5.80;69.60
53268;DHT22;39156;51.176;6.738;2022-11-20T13:24:54;5.80;69.90
53268;DHT22;39156;51.176;6.738;2022-11-20T13:27:22;5.80;69.80
53268;DHT22;39156;51.176;6.738;2022-11-20T13:30:12;5.80;69.60
53268;DHT22;39156;51.176;6.738;2022-11-20T13:33:07;5.80;69.80
53268;DHT22;39156;51.176;6.738;2022-11-20T13:35:41;5.80;69.90
53268;DHT22;39156;51.176;6.738;2022-11-20T13:38:10;5.80;69.90
53268;DHT22;39156;51.176;6.738;2022-11-20T13:40:56;5.80;69.90
53268;DHT22;39156;51.176;6.738;2022-11-20T13:43:35;5.80;69.90
53268;DHT22;39156;51.176;6.738;2022-11-20T13:46:06;5.80;69.70
53268;DHT22;39156;51.176;6.738;2022-11-20T13:48:44;5.90;70.00
53268;DHT22;39156;51.176;6.738;2022-11-20T13:54:51;5.90;70.60
53268;DHT22;39156;51.176;6.738;2022-11-20T13:58:12;5.90;70.00
53268;DHT22;39156;51.176;6.738;2022-11-20T14:00:50;5.90;70.30
53268;DHT22;39156;51.176;6.738;2022-11-20T14:03:22;6.00;70.10
53268;DHT22;39156;51.176;6.738;2022-11-20T14:05:54;5.90;70.10
53268;DHT22;39156;51.176;6.738;2022-11-20T14:08:58;6.00;70.10
53268;DHT22;39156;51.176;6.738;2022-11-20T14:11:22;5.90;70.20
53268;DHT22;39156;51.176;6.738;2022-11-20T14:16:30;6.00;70.50
53268;DHT22;39156;51.176;6.738;2022-11-20T14:19:11;6.00;70.00
53268;DHT22;39156;51.176;6.738;2022-11-20T14:21:54;6.00;69.90
53268;DHT22;39156;51.176;6.738;2022-11-20T14:24:32;5.90;70.00
53268;DHT22;39156;51.176;6.738;2022-11-20T14:26:58;5.90;70.00
53268;DHT22;39156;51.176;6.738;2022-11-20T14:29:37;6.00;70.00
53268;DHT22;39156;51.176;6.738;2022-11-20T14:32:04;5.90;70.10
53268;DHT22;39156;51.176;6.738;2022-11-20T14:34:32;5.90;70.60
53268;DHT22;39156;51.176;6.738;2022-11-20T14:37:04;5.90;70.00
53268;DHT22;39156;51.176;6.738;2022-11-20T14:39:36;5.80;70.00
53268;DHT22;39156;51.176;6.738;2022-11-20T14:42:16;5.90;70.10
53268;DHT22;39156;51.176;6.738;2022-11-20T14:44:50;5.80;70.00
53268;DHT22;39156;51.176;6.738;2022-11-20T14:47:23;5.80;70.10
53268;DHT22;39156;51.176;6.738;2022-11-20T14:49:55;5.90;70.10
53268;DHT22;39156;51.176;6.738;2022-11-20T14:52:23;5.90;70.10
53268;DHT22;39156;51.176;6.738;2022-11-20T14:54:51;5.80;69.90
53268;DHT22;39156;51.176;6.738;2022-11-20T14:57:28;5.80;70.00
53268;DHT22;39156;51.176;6.738;2022-11-20T15:00:18;5.70;69.80
53268;DHT22;39156;51.176;6.738;2022-11-20T15:02:47;5.70;69.80
53268;DHT22;39156;51.176;6.738;2022-11-20T15:05:15;5.70;70.00
53268;DHT22;39156;51.176;6.738;2022-11-20T15:07:44;5.70;70.00
53268;DHT22;39156;51.176;6.738;2022-11-20T15:10:22;5.70;70.10
53268;DHT22;39156;51.176;6.738;2022-11-20T15:15:30;5.70;70.30
53268;DHT22;39156;51.176;6.738;2022-11-20T15:17:59;5.70;70.50
53268;DHT22;39156;51.176;6.738;2022-11-20T15:20:30;5.70;70.40
53268;DHT22;39156;51.176;6.738;2022-11-20T15:22:57;5.70;70.50
53268;DHT22;39156;51.176;6.738;2022-11-20T15:25:23;5.70;70.60
53268;DHT22;39156;51.176;6.738;2022-11-20T15:27:53;5.70;70.80
53268;DHT22;39156;51.176;6.738;2022-11-20T15:30:22;5.60;71.20
53268;DHT22;39156;51.176;6.738;2022-11-20T15:32:48;5.70;71.40
53268;DHT22;39156;51.176;6.738;2022-11-20T15:35:15;5.70;71.70
53268;DHT22;39156;51.176;6.738;2022-11-20T15:37:41;5.70;71.80
53268;DHT22;39156;51.176;6.738;2022-11-20T15:40:08;5.60;71.90
53268;DHT22;39156;51.176;6.738;2022-11-20T15:42:35;5.70;72.10
53268;DHT22;39156;51.176;6.738;2022-11-20T15:45:01;5.70;72.30
53268;DHT22;39156;51.176;6.738;2022-11-20T15:47:30;5.70;72.40
53268;DHT22;39156;51.176;6.738;2022-11-20T15:49:57;5.60;72.80
53268;DHT22;39156;51.176;6.738;2022-11-20T15:52:23;5.70;72.70
53268;DHT22;39156;51.176;6.738;2022-11-20T15:54:49;5.60;73.00
53268;DHT22;39156;51.176;6.738;2022-11-20T15:57:14;5.60;73.10
53268;DHT22;39156;51.176;6.738;2022-11-20T15:59:40;5.70;73.30
53268;DHT22;39156;51.176;6.738;2022-11-20T16:02:14;5.60;73.60
53268;DHT22;39156;51.176;6.738;2022-11-20T16:04:41;5.60;73.90
53268;DHT22;39156;51.176;6.738;2022-11-20T16:07:07;5.60;73.90
53268;DHT22;39156;51.176;6.738;2022-11-20T16:09:32;5.50;74.10
53268;DHT22;39156;51.176;6.738;2022-11-20T16:11:59;5.50;74.20
53268;DHT22;39156;51.176;6.738;2022-11-20T16:14:25;5.60;74.40
53268;DHT22;39156;51.176;6.738;2022-11-20T16:17:10;5.50;74.50
53268;DHT22;39156;51.176;6.738;2022-11-20T16:19:36;5.60;74.80
53268;DHT22;39156;51.176;6.738;2022-11-20T16:22:02;5.60;75.10
53268;DHT22;39156;51.176;6.738;2022-11-20T16:24:28;5.60;75.30
53268;DHT22;39156;51.176;6.738;2022-11-20T16:26:54;5.50;74.90
53268;DHT22;39156;51.176;6.738;2022-11-20T16:29:20;5.60;75.00
53268;DHT22;39156;51.176;6.738;2022-11-20T16:31:46;5.60;75.00
53268;DHT22;39156;51.176;6.738;2022-11-20T16:34:12;5.60;75.30
53268;DHT22;39156;51.176;6.738;2022-11-20T16:36:41;5.60;75.60
53268;DHT22;39156;51.176;6.738;2022-11-20T16:39:09;5.50;75.90
53268;DHT22;39156;51.176;6.738;2022-11-20T16:41:35;5.50;76.00
53268;DHT22;39156;51.176;6.738;2022-11-20T16:44:05;5.50;76.20
53268;DHT22;39156;51.176;6.738;2022-11-20T16:46:32;5.50;76.50
53268;DHT22;39156;51.176;6.738;2022-11-20T16:49:04;5.60;76.70
53268;DHT22;39156;51.176;6.738;2022-11-20T16:51:33;5.60;77.10
53268;DHT22;39156;51.176;6.738;2022-11-20T16:54:04;5.60;77.10
53268;DHT22;39156;51.176;6.738;2022-11-20T16:56:32;5.60;77.20
53268;DHT22;39156;51.176;6.738;2022-11-20T16:58:59;5.60;77.10
53268;DHT22;39156;51.176;6.738;2022-11-20T17:01:26;5.60;77.20
53268;DHT22;39156;51.176;6.738;2022-11-20T17:06:23;5.60;77.60
53268;DHT22;39156;51.176;6.738;2022-11-20T17:08:52;5.70;77.80
53268;DHT22;39156;51.176;6.738;2022-11-20T17:11:19;5.70;77.90
53268;DHT22;39156;51.176;6.738;2022-11-20T17:13:44;5.70;78.20
53268;DHT22;39156;51.176;6.738;2022-11-20T17:16:16;5.60;78.30
53268;DHT22;39156;51.176;6.738;2022-11-20T17:18:43;5.60;78.80
53268;DHT22;39156;51.176;6.738;2022-11-20T17:21:10;5.60;78.80
53268;DHT22;39156;51.176;6.738;2022-11-20T17:23:38;5.60;79.00